Skip Navigation Links
NOAA logo - Click to go to the NOAA homepage
NOAA's National Weather Service
Alaska Aviation Weather Unit
  NWS logo - Click to go to the NWS homepage
Left Navbar Graphic     21 AKDT = 05 GMT

   
NOAA is celebrating 200 years of science, service, and stewardship. Visit the NOAA 200th celebration Web site to learn more.
USA.gov is the U.S. Government's official Web portal to all Federal, state and local government Web resources and services.
Facebook
NWS on Facebook

Important Change Regarding the AAWU Web Presence

 

Over the last several months, the AAWU has been working to navigate its webpages to a nationally supported server. Security, as well as other needs, have necessitated the change.  In the process, we have made an effort to enhance the functionality of our website, as well as some of our products. As of June 27, 2017, aawu.arh.noaa.gov will be discontinued. The new AAWU web address is weather.gov/aawu. It is now live and will run in-parallel with the old site until it is discontinued. Please send any feedback or questions regarding the new webpages to nws.ar.aawu.webauthors@noaa.gov.  Thank you for your patience during this time of transition.
AAWU Home :: Display TAF Add Bookmark
TAF PASI 250324Z 2503/2524 22013KT P6SM VCSH SCT013 BKN060
      TEMPO 2503/2507 BKN012 OVC040
     FM250800 18007KT P6SM -RA SCT020 OVC030=
METAR PASI 242353Z 23008KT 190V250 10SM OVC039 14/10 A3007=

METAR PASI 250053Z 22013KT 10SM FEW025 OVC041 13/11 A3007=

METAR PASI 250153Z 22011G19KT 10SM FEW025 BKN045 12/11 A3007=

PASI 250248Z 22015KT 10SM BKN014 BKN060 12/11 A3006=

SPECI PASI 250248Z 22015KT 10SM BKN014 BKN060 12/11 A3006 RMK AO2=

METAR PASI 250253Z 22013KT 10SM BKN013 BKN065 12/11 A3006=

METAR PASI 250353Z 25005KT 10SM SCT007 OVC012 12/11 A3005=

METAR PASI 250453Z 29004KT 10SM SCT007 OVC012 12/10 A3004 RMK AO2 SLP172
     T01220100=


NOAA's National Weather Service
Alaska Aviation Weather Unit
6930 Sand Lake Road
Anchorage, AK 99502-1845
Disclaimer
Credits
Glossary
Privacy Policy
About Us
Career Opportunities
Contact AAWU Internet Services Site last modified: April, 17th 2012